RKTU

Cheongju International Airport

Airport
ICAO code
RKTU
IATA Code
CJJ
Summary
ICAO Region
APAC
ICAO Territory
Location

, Ch'ungch'ong-bukto

Serving
Chongju
Elevation
191 ft
Coordinates
36° 42' 60" N , 127° 29' 57" E
Metar
RKTU 122221Z 03001KT 3200 BR FEW020 23/23 Q1005

Runways

Designator Length Width Surface Rops
06L/24R 2743 61 CON Yes/Yes
06R/24L 2743 46 CON Yes/Yes

Airport map

Aerial View

SKYbrary Partners:

Safety knowledge contributed by: